sensor_id;sensor_type;location;lat;lon;timestamp;P1;durP1;ratioP1;P2;durP2;ratioP2
15358;SDS011;7779;49.596;11.070;2022-07-30T00:00:06;3.67;;;3.37;;
15358;SDS011;7779;49.596;11.070;2022-07-30T00:02:34;3.60;;;3.27;;
15358;SDS011;7779;49.596;11.070;2022-07-30T00:05:01;4.20;;;3.83;;
15358;SDS011;7779;49.596;11.070;2022-07-30T00:07:28;4.23;;;3.87;;
15358;SDS011;7779;49.596;11.070;2022-07-30T00:09:54;3.73;;;3.43;;
15358;SDS011;7779;49.596;11.070;2022-07-30T00:12:20;3.83;;;3.43;;
15358;SDS011;7779;49.596;11.070;2022-07-30T00:14:46;4.37;;;3.70;;
15358;SDS011;7779;49.596;11.070;2022-07-30T00:17:12;3.50;;;3.20;;
15358;SDS011;7779;49.596;11.070;2022-07-30T00:19:37;4.00;;;3.70;;
15358;SDS011;7779;49.596;11.070;2022-07-30T00:22:03;3.40;;;3.10;;
15358;SDS011;7779;49.596;11.070;2022-07-30T00:24:29;3.37;;;3.13;;
15358;SDS011;7779;49.596;11.070;2022-07-30T00:26:55;4.03;;;3.70;;
15358;SDS011;7779;49.596;11.070;2022-07-30T00:29:21;3.80;;;3.50;;
15358;SDS011;7779;49.596;11.070;2022-07-30T00:31:47;3.93;;;3.60;;
15358;SDS011;7779;49.596;11.070;2022-07-30T00:34:12;3.93;;;3.60;;
15358;SDS011;7779;49.596;11.070;2022-07-30T00:36:38;4.23;;;3.77;;
15358;SDS011;7779;49.596;11.070;2022-07-30T00:39:05;4.13;;;3.73;;
15358;SDS011;7779;49.596;11.070;2022-07-30T00:41:30;4.43;;;3.83;;
15358;SDS011;7779;49.596;11.070;2022-07-30T00:43:56;3.57;;;3.33;;
15358;SDS011;7779;49.596;11.070;2022-07-30T00:46:22;5.27;;;3.73;;
15358;SDS011;7779;49.596;11.070;2022-07-30T00:48:49;6.17;;;3.80;;
15358;SDS011;7779;49.596;11.070;2022-07-30T00:51:15;5.37;;;4.27;;
15358;SDS011;7779;49.596;11.070;2022-07-30T00:53:41;4.70;;;4.30;;
15358;SDS011;7779;49.596;11.070;2022-07-30T00:56:07;4.53;;;4.13;;
15358;SDS011;7779;49.596;11.070;2022-07-30T00:58:33;4.30;;;4.00;;
15358;SDS011;7779;49.596;11.070;2022-07-30T01:00:59;4.50;;;4.13;;
15358;SDS011;7779;49.596;11.070;2022-07-30T01:03:25;4.80;;;3.70;;
15358;SDS011;7779;49.596;11.070;2022-07-30T01:05:51;4.30;;;3.90;;
15358;SDS011;7779;49.596;11.070;2022-07-30T01:08:17;4.43;;;3.67;;
15358;SDS011;7779;49.596;11.070;2022-07-30T01:10:43;4.40;;;4.00;;
15358;SDS011;7779;49.596;11.070;2022-07-30T01:13:09;4.20;;;3.90;;
15358;SDS011;7779;49.596;11.070;2022-07-30T01:15:35;5.67;;;4.20;;
15358;SDS011;7779;49.596;11.070;2022-07-30T01:18:04;4.47;;;4.07;;
15358;SDS011;7779;49.596;11.070;2022-07-30T01:23:30;4.57;;;4.17;;
15358;SDS011;7779;49.596;11.070;2022-07-30T01:26:07;4.97;;;4.43;;
15358;SDS011;7779;49.596;11.070;2022-07-30T01:28:41;5.13;;;4.63;;
15358;SDS011;7779;49.596;11.070;2022-07-30T01:31:13;4.67;;;4.23;;
15358;SDS011;7779;49.596;11.070;2022-07-30T01:33:42;5.53;;;5.03;;
15358;SDS011;7779;49.596;11.070;2022-07-30T01:36:12;6.07;;;5.47;;
15358;SDS011;7779;49.596;11.070;2022-07-30T01:38:42;7.40;;;5.07;;
15358;SDS011;7779;49.596;11.070;2022-07-30T01:41:12;5.83;;;5.13;;
15358;SDS011;7779;49.596;11.070;2022-07-30T01:43:40;5.77;;;5.27;;
15358;SDS011;7779;49.596;11.070;2022-07-30T01:46:09;5.17;;;4.77;;
15358;SDS011;7779;49.596;11.070;2022-07-30T01:48:38;4.77;;;4.37;;
15358;SDS011;7779;49.596;11.070;2022-07-30T01:51:09;4.50;;;4.10;;
15358;SDS011;7779;49.596;11.070;2022-07-30T01:53:41;3.73;;;3.43;;
15358;SDS011;7779;49.596;11.070;2022-07-30T01:56:08;3.80;;;3.50;;
15358;SDS011;7779;49.596;11.070;2022-07-30T01:58:39;4.30;;;3.90;;
15358;SDS011;7779;49.596;11.070;2022-07-30T02:01:18;4.03;;;3.73;;
15358;SDS011;7779;49.596;11.070;2022-07-30T02:03:44;4.80;;;3.83;;
15358;SDS011;7779;49.596;11.070;2022-07-30T02:06:13;4.67;;;4.27;;
15358;SDS011;7779;49.596;11.070;2022-07-30T02:08:53;3.57;;;3.30;;
15358;SDS011;7779;49.596;11.070;2022-07-30T02:11:25;4.17;;;3.87;;
15358;SDS011;7779;49.596;11.070;2022-07-30T02:14:21;3.90;;;3.60;;
15358;SDS011;7779;49.596;11.070;2022-07-30T02:17:03;5.50;;;4.03;;
15358;SDS011;7779;49.596;11.070;2022-07-30T02:19:32;4.17;;;3.83;;
15358;SDS011;7779;49.596;11.070;2022-07-30T02:22:08;4.40;;;4.00;;
15358;SDS011;7779;49.596;11.070;2022-07-30T02:24:39;4.70;;;4.30;;
15358;SDS011;7779;49.596;11.070;2022-07-30T02:27:09;5.53;;;4.47;;
15358;SDS011;7779;49.596;11.070;2022-07-30T02:29:42;4.50;;;4.10;;
15358;SDS011;7779;49.596;11.070;2022-07-30T02:32:12;4.47;;;4.07;;
15358;SDS011;7779;49.596;11.070;2022-07-30T02:34:44;4.43;;;4.03;;
15358;SDS011;7779;49.596;11.070;2022-07-30T02:37:14;4.37;;;4.07;;
15358;SDS011;7779;49.596;11.070;2022-07-30T02:39:44;4.27;;;3.97;;
15358;SDS011;7779;49.596;11.070;2022-07-30T02:42:12;4.30;;;3.83;;
15358;SDS011;7779;49.596;11.070;2022-07-30T02:44:41;5.00;;;4.50;;
15358;SDS011;7779;49.596;11.070;2022-07-30T02:47:11;5.10;;;4.70;;
15358;SDS011;7779;49.596;11.070;2022-07-30T02:49:50;5.10;;;4.60;;
15358;SDS011;7779;49.596;11.070;2022-07-30T02:52:18;4.40;;;4.10;;
15358;SDS011;7779;49.596;11.070;2022-07-30T02:54:46;5.10;;;4.50;;
15358;SDS011;7779;49.596;11.070;2022-07-30T02:57:15;5.00;;;4.60;;
15358;SDS011;7779;49.596;11.070;2022-07-30T02:59:45;5.17;;;4.77;;
15358;SDS011;7779;49.596;11.070;2022-07-30T03:02:13;6.67;;;4.33;;
15358;SDS011;7779;49.596;11.070;2022-07-30T03:04:41;5.13;;;4.63;;
15358;SDS011;7779;49.596;11.070;2022-07-30T03:07:08;4.90;;;4.50;;
15358;SDS011;7779;49.596;11.070;2022-07-30T03:09:37;5.00;;;4.60;;
15358;SDS011;7779;49.596;11.070;2022-07-30T03:12:07;4.87;;;4.47;;
15358;SDS011;7779;49.596;11.070;2022-07-30T03:14:37;4.57;;;4.17;;
15358;SDS011;7779;49.596;11.070;2022-07-30T03:17:03;5.60;;;4.80;;
15358;SDS011;7779;49.596;11.070;2022-07-30T03:19:32;4.93;;;4.53;;
15358;SDS011;7779;49.596;11.070;2022-07-30T03:22:04;5.93;;;5.43;;
15358;SDS011;7779;49.596;11.070;2022-07-30T03:24:33;5.87;;;5.37;;
15358;SDS011;7779;49.596;11.070;2022-07-30T03:27:02;5.93;;;5.23;;
15358;SDS011;7779;49.596;11.070;2022-07-30T03:29:30;6.80;;;5.90;;
15358;SDS011;7779;49.596;11.070;2022-07-30T03:31:59;5.40;;;4.97;;
15358;SDS011;7779;49.596;11.070;2022-07-30T03:34:25;5.77;;;5.27;;
15358;SDS011;7779;49.596;11.070;2022-07-30T03:36:52;5.80;;;5.20;;
15358;SDS011;7779;49.596;11.070;2022-07-30T03:39:19;6.00;;;5.40;;
15358;SDS011;7779;49.596;11.070;2022-07-30T03:41:47;5.67;;;5.13;;
15358;SDS011;7779;49.596;11.070;2022-07-30T03:44:15;5.90;;;5.20;;
15358;SDS011;7779;49.596;11.070;2022-07-30T03:46:42;7.57;;;6.17;;
15358;SDS011;7779;49.596;11.070;2022-07-30T03:49:09;7.33;;;6.13;;
15358;SDS011;7779;49.596;11.070;2022-07-30T03:51:38;7.60;;;5.87;;
15358;SDS011;7779;49.596;11.070;2022-07-30T03:54:06;8.13;;;6.20;;
15358;SDS011;7779;49.596;11.070;2022-07-30T03:56:37;8.90;;;5.90;;
15358;SDS011;7779;49.596;11.070;2022-07-30T03:59:06;8.33;;;6.23;;
15358;SDS011;7779;49.596;11.070;2022-07-30T04:01:36;6.47;;;5.70;;
15358;SDS011;7779;49.596;11.070;2022-07-30T04:04:24;7.23;;;6.13;;
15358;SDS011;7779;49.596;11.070;2022-07-30T04:06:52;8.23;;;6.93;;
15358;SDS011;7779;49.596;11.070;2022-07-30T04:09:18;8.93;;;6.90;;
15358;SDS011;7779;49.596;11.070;2022-07-30T04:11:45;8.90;;;8.00;;
15358;SDS011;7779;49.596;11.070;2022-07-30T04:14:19;9.43;;;8.43;;
15358;SDS011;7779;49.596;11.070;2022-07-30T04:16:48;10.70;;;8.67;;
15358;SDS011;7779;49.596;11.070;2022-07-30T04:19:25;11.80;;;9.73;;
15358;SDS011;7779;49.596;11.070;2022-07-30T04:21:59;13.20;;;9.23;;
15358;SDS011;7779;49.596;11.070;2022-07-30T04:24:31;9.90;;;8.90;;
15358;SDS011;7779;49.596;11.070;2022-07-30T04:26:59;11.13;;;10.00;;
15358;SDS011;7779;49.596;11.070;2022-07-30T04:29:26;10.50;;;9.47;;
15358;SDS011;7779;49.596;11.070;2022-07-30T04:31:53;10.43;;;9.33;;
15358;SDS011;7779;49.596;11.070;2022-07-30T04:34:53;10.77;;;9.40;;
15358;SDS011;7779;49.596;11.070;2022-07-30T04:37:56;10.67;;;9.67;;
15358;SDS011;7779;49.596;11.070;2022-07-30T04:40:22;11.00;;;9.90;;
15358;SDS011;7779;49.596;11.070;2022-07-30T04:42:49;11.57;;;10.40;;
15358;SDS011;7779;49.596;11.070;2022-07-30T04:45:16;13.03;;;11.70;;
15358;SDS011;7779;49.596;11.070;2022-07-30T04:47:48;12.63;;;11.43;;
15358;SDS011;7779;49.596;11.070;2022-07-30T04:50:34;12.93;;;11.73;;
15358;SDS011;7779;49.596;11.070;2022-07-30T04:53:06;12.17;;;11.07;;
15358;SDS011;7779;49.596;11.070;2022-07-30T04:55:41;12.87;;;11.77;;
15358;SDS011;7779;49.596;11.070;2022-07-30T04:58:11;12.10;;;11.00;;
15358;SDS011;7779;49.596;11.070;2022-07-30T05:00:40;12.27;;;11.17;;
15358;SDS011;7779;49.596;11.070;2022-07-30T05:03:12;12.33;;;11.13;;
15358;SDS011;7779;49.596;11.070;2022-07-30T05:05:47;12.53;;;11.33;;
15358;SDS011;7779;49.596;11.070;2022-07-30T05:08:15;13.33;;;12.03;;
15358;SDS011;7779;49.596;11.070;2022-07-30T05:10:42;11.63;;;10.53;;
15358;SDS011;7779;49.596;11.070;2022-07-30T05:13:12;12.83;;;11.63;;
15358;SDS011;7779;49.596;11.070;2022-07-30T05:15:41;13.13;;;11.83;;
15358;SDS011;7779;49.596;11.070;2022-07-30T05:18:14;12.37;;;11.17;;
15358;SDS011;7779;49.596;11.070;2022-07-30T05:20:42;12.67;;;11.50;;
15358;SDS011;7779;49.596;11.070;2022-07-30T05:23:14;11.83;;;10.73;;
15358;SDS011;7779;49.596;11.070;2022-07-30T05:25:46;12.10;;;10.97;;
15358;SDS011;7779;49.596;11.070;2022-07-30T05:28:16;11.60;;;10.50;;
15358;SDS011;7779;49.596;11.070;2022-07-30T05:30:43;13.33;;;12.07;;
15358;SDS011;7779;49.596;11.070;2022-07-30T05:33:13;12.80;;;11.60;;
15358;SDS011;7779;49.596;11.070;2022-07-30T05:35:39;14.20;;;12.87;;
15358;SDS011;7779;49.596;11.070;2022-07-30T05:38:05;12.90;;;11.60;;
15358;SDS011;7779;49.596;11.070;2022-07-30T05:40:42;13.13;;;11.93;;
15358;SDS011;7779;49.596;11.070;2022-07-30T05:43:28;12.07;;;10.97;;
15358;SDS011;7779;49.596;11.070;2022-07-30T05:45:54;12.23;;;11.13;;
15358;SDS011;7779;49.596;11.070;2022-07-30T05:48:20;12.80;;;11.60;;
15358;SDS011;7779;49.596;11.070;2022-07-30T05:50:46;11.83;;;10.73;;
15358;SDS011;7779;49.596;11.070;2022-07-30T05:53:12;13.63;;;12.13;;
15358;SDS011;7779;49.596;11.070;2022-07-30T05:56:13;12.37;;;11.17;;
15358;SDS011;7779;49.596;11.070;2022-07-30T05:58:52;11.93;;;10.77;;
15358;SDS011;7779;49.596;11.070;2022-07-30T06:01:30;12.53;;;11.33;;
15358;SDS011;7779;49.596;11.070;2022-07-30T06:04:01;12.63;;;11.47;;
15358;SDS011;7779;49.596;11.070;2022-07-30T06:06:40;11.50;;;10.43;;
15358;SDS011;7779;49.596;11.070;2022-07-30T06:09:06;11.27;;;10.27;;
15358;SDS011;7779;49.596;11.070;2022-07-30T06:11:33;10.40;;;9.40;;
15358;SDS011;7779;49.596;11.070;2022-07-30T06:14:00;11.60;;;10.00;;
15358;SDS011;7779;49.596;11.070;2022-07-30T06:16:26;9.70;;;8.73;;
15358;SDS011;7779;49.596;11.070;2022-07-30T06:18:51;9.03;;;8.23;;
15358;SDS011;7779;49.596;11.070;2022-07-30T06:21:40;9.03;;;8.13;;
15358;SDS011;7779;49.596;11.070;2022-07-30T06:24:14;8.83;;;8.00;;
15358;SDS011;7779;49.596;11.070;2022-07-30T06:26:52;8.37;;;7.67;;
15358;SDS011;7779;49.596;11.070;2022-07-30T06:29:18;8.53;;;7.73;;
15358;SDS011;7779;49.596;11.070;2022-07-30T06:31:44;8.67;;;7.87;;
15358;SDS011;7779;49.596;11.070;2022-07-30T06:34:11;8.53;;;7.77;;
15358;SDS011;7779;49.596;11.070;2022-07-30T06:36:40;8.37;;;7.57;;
15358;SDS011;7779;49.596;11.070;2022-07-30T06:39:19;7.77;;;7.07;;
15358;SDS011;7779;49.596;11.070;2022-07-30T06:42:05;7.53;;;6.93;;
15358;SDS011;7779;49.596;11.070;2022-07-30T06:45:00;7.30;;;6.60;;
15358;SDS011;7779;49.596;11.070;2022-07-30T06:47:35;7.37;;;6.70;;
15358;SDS011;7779;49.596;11.070;2022-07-30T06:50:02;7.43;;;6.77;;
15358;SDS011;7779;49.596;11.070;2022-07-30T06:52:30;7.03;;;6.43;;
15358;SDS011;7779;49.596;11.070;2022-07-30T06:54:56;6.27;;;5.77;;
15358;SDS011;7779;49.596;11.070;2022-07-30T06:57:37;6.50;;;5.90;;
15358;SDS011;7779;49.596;11.070;2022-07-30T07:00:08;5.87;;;5.27;;
15358;SDS011;7779;49.596;11.070;2022-07-30T07:02:37;5.27;;;4.87;;
15358;SDS011;7779;49.596;11.070;2022-07-30T07:05:09;4.57;;;4.17;;
15358;SDS011;7779;49.596;11.070;2022-07-30T07:07:39;4.77;;;4.37;;
15358;SDS011;7779;49.596;11.070;2022-07-30T07:10:05;4.10;;;3.80;;
15358;SDS011;7779;49.596;11.070;2022-07-30T07:12:49;4.03;;;3.67;;
15358;SDS011;7779;49.596;11.070;2022-07-30T07:15:18;4.37;;;3.67;;
15358;SDS011;7779;49.596;11.070;2022-07-30T07:17:44;3.47;;;3.27;;
15358;SDS011;7779;49.596;11.070;2022-07-30T07:20:21;2.67;;;2.47;;
15358;SDS011;7779;49.596;11.070;2022-07-30T07:22:53;2.50;;;2.30;;
15358;SDS011;7779;49.596;11.070;2022-07-30T07:25:19;2.50;;;2.30;;
15358;SDS011;7779;49.596;11.070;2022-07-30T07:27:45;2.33;;;2.20;;
15358;SDS011;7779;49.596;11.070;2022-07-30T07:30:11;2.53;;;2.33;;
15358;SDS011;7779;49.596;11.070;2022-07-30T07:32:38;2.50;;;2.30;;
15358;SDS011;7779;49.596;11.070;2022-07-30T07:35:06;2.57;;;2.47;;
15358;SDS011;7779;49.596;11.070;2022-07-30T07:37:35;2.33;;;2.13;;
15358;SDS011;7779;49.596;11.070;2022-07-30T07:40:02;2.40;;;2.20;;
15358;SDS011;7779;49.596;11.070;2022-07-30T07:42:34;2.50;;;2.30;;
15358;SDS011;7779;49.596;11.070;2022-07-30T07:45:00;2.00;;;1.90;;
15358;SDS011;7779;49.596;11.070;2022-07-30T07:47:30;2.70;;;2.50;;
15358;SDS011;7779;49.596;11.070;2022-07-30T07:50:16;2.03;;;1.93;;
15358;SDS011;7779;49.596;11.070;2022-07-30T07:52:43;2.57;;;2.37;;
15358;SDS011;7779;49.596;11.070;2022-07-30T07:55:10;2.33;;;2.17;;
15358;SDS011;7779;49.596;11.070;2022-07-30T07:57:37;2.40;;;2.20;;
15358;SDS011;7779;49.596;11.070;2022-07-30T08:00:11;2.83;;;2.63;;
15358;SDS011;7779;49.596;11.070;2022-07-30T08:02:44;2.40;;;2.20;;
15358;SDS011;7779;49.596;11.070;2022-07-30T08:05:13;2.40;;;2.30;;
15358;SDS011;7779;49.596;11.070;2022-07-30T08:07:56;2.70;;;2.50;;
15358;SDS011;7779;49.596;11.070;2022-07-30T08:10:41;2.80;;;2.60;;
15358;SDS011;7779;49.596;11.070;2022-07-30T08:13:42;2.63;;;2.43;;
15358;SDS011;7779;49.596;11.070;2022-07-30T08:16:26;3.63;;;2.40;;
15358;SDS011;7779;49.596;11.070;2022-07-30T08:19:10;2.33;;;2.13;;
15358;SDS011;7779;49.596;11.070;2022-07-30T08:21:38;2.33;;;2.17;;
15358;SDS011;7779;49.596;11.070;2022-07-30T08:24:05;2.30;;;2.10;;
15358;SDS011;7779;49.596;11.070;2022-07-30T08:26:31;2.10;;;2.00;;
15358;SDS011;7779;49.596;11.070;2022-07-30T08:28:57;2.33;;;2.20;;
15358;SDS011;7779;49.596;11.070;2022-07-30T08:31:23;2.70;;;2.00;;
15358;SDS011;7779;49.596;11.070;2022-07-30T08:33:49;2.40;;;2.20;;
15358;SDS011;7779;49.596;11.070;2022-07-30T08:36:15;2.10;;;2.00;;
15358;SDS011;7779;49.596;11.070;2022-07-30T08:38:41;2.37;;;2.17;;
15358;SDS011;7779;49.596;11.070;2022-07-30T08:41:08;2.33;;;2.13;;
15358;SDS011;7779;49.596;11.070;2022-07-30T08:43:35;2.73;;;2.53;;
15358;SDS011;7779;49.596;11.070;2022-07-30T08:46:03;2.40;;;2.20;;
15358;SDS011;7779;49.596;11.070;2022-07-30T08:48:48;2.47;;;2.27;;
15358;SDS011;7779;49.596;11.070;2022-07-30T08:51:17;2.07;;;1.97;;
15358;SDS011;7779;49.596;11.070;2022-07-30T08:54:12;2.37;;;2.17;;
15358;SDS011;7779;49.596;11.070;2022-07-30T08:56:40;2.43;;;2.30;;
15358;SDS011;7779;49.596;11.070;2022-07-30T08:59:06;1.90;;;1.80;;
15358;SDS011;7779;49.596;11.070;2022-07-30T09:01:32;2.43;;;2.23;;
15358;SDS011;7779;49.596;11.070;2022-07-30T09:03:58;2.43;;;2.23;;
15358;SDS011;7779;49.596;11.070;2022-07-30T09:06:26;2.30;;;2.10;;
15358;SDS011;7779;49.596;11.070;2022-07-30T09:08:53;2.30;;;2.13;;
15358;SDS011;7779;49.596;11.070;2022-07-30T09:11:20;2.47;;;2.27;;
15358;SDS011;7779;49.596;11.070;2022-07-30T09:13:47;2.67;;;2.47;;
15358;SDS011;7779;49.596;11.070;2022-07-30T09:16:25;2.73;;;2.50;;
15358;SDS011;7779;49.596;11.070;2022-07-30T09:18:54;2.80;;;2.60;;
15358;SDS011;7779;49.596;11.070;2022-07-30T09:21:24;2.90;;;2.70;;
15358;SDS011;7779;49.596;11.070;2022-07-30T09:24:11;2.70;;;2.50;;
15358;SDS011;7779;49.596;11.070;2022-07-30T09:27:03;3.07;;;2.87;;
15358;SDS011;7779;49.596;11.070;2022-07-30T09:29:57;2.80;;;2.60;;
15358;SDS011;7779;49.596;11.070;2022-07-30T09:32:50;2.90;;;2.60;;
15358;SDS011;7779;49.596;11.070;2022-07-30T09:35:24;3.20;;;2.90;;
15358;SDS011;7779;49.596;11.070;2022-07-30T09:38:12;2.83;;;2.63;;
15358;SDS011;7779;49.596;11.070;2022-07-30T09:40:51;2.80;;;2.60;;
15358;SDS011;7779;49.596;11.070;2022-07-30T09:43:47;2.90;;;2.70;;
15358;SDS011;7779;49.596;11.070;2022-07-30T09:49:25;4.57;;;3.20;;
15358;SDS011;7779;49.596;11.070;2022-07-30T09:51:53;3.10;;;2.80;;
15358;SDS011;7779;49.596;11.070;2022-07-30T09:54:22;2.77;;;2.57;;
15358;SDS011;7779;49.596;11.070;2022-07-30T09:57:02;3.23;;;2.93;;
15358;SDS011;7779;49.596;11.070;2022-07-30T09:59:32;3.10;;;2.90;;
15358;SDS011;7779;49.596;11.070;2022-07-30T10:01:57;3.00;;;2.80;;
15358;SDS011;7779;49.596;11.070;2022-07-30T10:04:42;3.33;;;3.03;;
15358;SDS011;7779;49.596;11.070;2022-07-30T10:07:18;2.90;;;2.70;;
15358;SDS011;7779;49.596;11.070;2022-07-30T10:09:46;3.07;;;2.87;;
15358;SDS011;7779;49.596;11.070;2022-07-30T10:12:14;2.57;;;2.43;;
15358;SDS011;7779;49.596;11.070;2022-07-30T10:14:45;2.77;;;2.53;;
15358;SDS011;7779;49.596;11.070;2022-07-30T10:17:16;3.20;;;3.00;;
15358;SDS011;7779;49.596;11.070;2022-07-30T10:19:55;2.97;;;2.77;;
15358;SDS011;7779;49.596;11.070;2022-07-30T10:22:50;2.83;;;2.63;;
15358;SDS011;7779;49.596;11.070;2022-07-30T10:25:35;2.90;;;2.40;;
15358;SDS011;7779;49.596;11.070;2022-07-30T10:28:23;2.77;;;2.50;;
15358;SDS011;7779;49.596;11.070;2022-07-30T10:30:50;2.70;;;2.50;;
15358;SDS011;7779;49.596;11.070;2022-07-30T10:33:18;2.33;;;2.13;;
15358;SDS011;7779;49.596;11.070;2022-07-30T10:35:48;2.67;;;2.47;;
15358;SDS011;7779;49.596;11.070;2022-07-30T10:38:14;2.20;;;2.00;;
15358;SDS011;7779;49.596;11.070;2022-07-30T10:40:57;2.43;;;2.23;;
15358;SDS011;7779;49.596;11.070;2022-07-30T10:46:55;2.10;;;2.00;;
15358;SDS011;7779;49.596;11.070;2022-07-30T10:49:28;2.60;;;2.40;;
15358;SDS011;7779;49.596;11.070;2022-07-30T10:51:55;2.30;;;2.10;;
15358;SDS011;7779;49.596;11.070;2022-07-30T10:54:33;2.30;;;2.10;;
15358;SDS011;7779;49.596;11.070;2022-07-30T10:57:09;1.93;;;1.83;;
15358;SDS011;7779;49.596;11.070;2022-07-30T11:02:23;1.97;;;1.87;;
15358;SDS011;7779;49.596;11.070;2022-07-30T11:07:42;4.80;;;2.00;;
15358;SDS011;7779;49.596;11.070;2022-07-30T11:13:05;2.73;;;2.10;;
15358;SDS011;7779;49.596;11.070;2022-07-30T11:16:05;2.20;;;2.00;;
15358;SDS011;7779;49.596;11.070;2022-07-30T11:18:26;2.07;;;1.97;;
15358;SDS011;7779;49.596;11.070;2022-07-30T11:23:44;1.97;;;1.60;;
15358;SDS011;7779;49.596;11.070;2022-07-30T11:29:31;2.40;;;1.70;;
15358;SDS011;7779;49.596;11.070;2022-07-30T11:34:50;1.93;;;1.83;;
15358;SDS011;7779;49.596;11.070;2022-07-30T11:37:53;1.83;;;1.70;;
15358;SDS011;7779;49.596;11.070;2022-07-30T11:43:22;1.70;;;1.60;;
15358;SDS011;7779;49.596;11.070;2022-07-30T11:46:07;1.87;;;1.77;;
15358;SDS011;7779;49.596;11.070;2022-07-30T11:48:36;2.07;;;1.70;;
15358;SDS011;7779;49.596;11.070;2022-07-30T11:51:07;1.50;;;1.40;;
15358;SDS011;7779;49.596;11.070;2022-07-30T11:53:34;1.97;;;1.87;;
15358;SDS011;7779;49.596;11.070;2022-07-30T11:56:02;1.90;;;1.70;;
15358;SDS011;7779;49.596;11.070;2022-07-30T12:01:00;1.97;;;1.70;;
15358;SDS011;7779;49.596;11.070;2022-07-30T12:03:46;1.80;;;1.70;;
15358;SDS011;7779;49.596;11.070;2022-07-30T12:06:13;2.17;;;2.00;;
15358;SDS011;7779;49.596;11.070;2022-07-30T12:08:48;2.13;;;1.50;;
15358;SDS011;7779;49.596;11.070;2022-07-30T12:11:16;1.97;;;1.87;;
15358;SDS011;7779;49.596;11.070;2022-07-30T12:13:54;1.90;;;1.70;;
15358;SDS011;7779;49.596;11.070;2022-07-30T12:16:24;1.90;;;1.80;;
15358;SDS011;7779;49.596;11.070;2022-07-30T12:18:51;4.03;;;1.90;;
15358;SDS011;7779;49.596;11.070;2022-07-30T12:21:18;1.83;;;1.73;;
15358;SDS011;7779;49.596;11.070;2022-07-30T12:23:58;2.07;;;1.97;;
15358;SDS011;7779;49.596;11.070;2022-07-30T12:26:30;1.90;;;1.80;;
15358;SDS011;7779;49.596;11.070;2022-07-30T12:29:00;2.10;;;2.00;;
15358;SDS011;7779;49.596;11.070;2022-07-30T12:31:34;2.40;;;2.13;;
15358;SDS011;7779;49.596;11.070;2022-07-30T12:34:01;2.23;;;2.00;;
15358;SDS011;7779;49.596;11.070;2022-07-30T12:36:31;2.13;;;1.97;;
15358;SDS011;7779;49.596;11.070;2022-07-30T12:38:59;1.83;;;1.73;;
15358;SDS011;7779;49.596;11.070;2022-07-30T12:41:44;2.07;;;1.87;;
15358;SDS011;7779;49.596;11.070;2022-07-30T12:47:04;1.70;;;1.60;;
15358;SDS011;7779;49.596;11.070;2022-07-30T12:49:44;2.63;;;1.97;;
15358;SDS011;7779;49.596;11.070;2022-07-30T12:52:18;2.17;;;1.97;;
15358;SDS011;7779;49.596;11.070;2022-07-30T12:55:02;2.43;;;1.70;;
15358;SDS011;7779;49.596;11.070;2022-07-30T12:57:53;1.70;;;1.60;;
15358;SDS011;7779;49.596;11.070;2022-07-30T13:00:22;2.70;;;2.00;;
15358;SDS011;7779;49.596;11.070;2022-07-30T13:02:54;2.50;;;1.77;;
15358;SDS011;7779;49.596;11.070;2022-07-30T13:05:43;3.00;;;1.90;;
15358;SDS011;7779;49.596;11.070;2022-07-30T13:08:07;2.17;;;1.97;;
15358;SDS011;7779;49.596;11.070;2022-07-30T13:10:33;2.30;;;2.00;;
15358;SDS011;7779;49.596;11.070;2022-07-30T13:12:59;1.77;;;1.67;;
15358;SDS011;7779;49.596;11.070;2022-07-30T13:15:26;1.90;;;1.70;;
15358;SDS011;7779;49.596;11.070;2022-07-30T13:17:52;2.60;;;1.73;;
15358;SDS011;7779;49.596;11.070;2022-07-30T13:20:18;2.27;;;1.90;;
15358;SDS011;7779;49.596;11.070;2022-07-30T13:22:45;2.23;;;1.70;;
15358;SDS011;7779;49.596;11.070;2022-07-30T13:25:11;1.90;;;1.70;;
15358;SDS011;7779;49.596;11.070;2022-07-30T13:27:37;1.80;;;1.70;;
15358;SDS011;7779;49.596;11.070;2022-07-30T13:30:03;2.17;;;1.53;;
15358;SDS011;7779;49.596;11.070;2022-07-30T13:32:30;3.17;;;1.90;;
15358;SDS011;7779;49.596;11.070;2022-07-30T13:34:57;2.00;;;1.80;;
15358;SDS011;7779;49.596;11.070;2022-07-30T13:37:22;2.60;;;1.80;;
15358;SDS011;7779;49.596;11.070;2022-07-30T13:39:48;1.87;;;1.77;;
15358;SDS011;7779;49.596;11.070;2022-07-30T13:42:14;2.17;;;1.93;;
15358;SDS011;7779;49.596;11.070;2022-07-30T13:44:40;2.97;;;2.00;;
15358;SDS011;7779;49.596;11.070;2022-07-30T13:47:06;2.20;;;1.90;;
15358;SDS011;7779;49.596;11.070;2022-07-30T13:49:32;2.33;;;2.13;;
15358;SDS011;7779;49.596;11.070;2022-07-30T13:52:08;2.07;;;1.97;;
15358;SDS011;7779;49.596;11.070;2022-07-30T13:54:34;3.20;;;2.40;;
15358;SDS011;7779;49.596;11.070;2022-07-30T13:57:00;2.30;;;2.10;;
15358;SDS011;7779;49.596;11.070;2022-07-30T13:59:27;2.20;;;2.00;;
15358;SDS011;7779;49.596;11.070;2022-07-30T14:01:54;2.50;;;2.30;;
15358;SDS011;7779;49.596;11.070;2022-07-30T14:04:20;2.27;;;2.13;;
15358;SDS011;7779;49.596;11.070;2022-07-30T14:06:46;2.30;;;2.10;;
15358;SDS011;7779;49.596;11.070;2022-07-30T14:09:12;3.53;;;2.10;;
15358;SDS011;7779;49.596;11.070;2022-07-30T14:11:39;2.43;;;2.10;;
15358;SDS011;7779;49.596;11.070;2022-07-30T14:14:04;3.40;;;2.50;;
15358;SDS011;7779;49.596;11.070;2022-07-30T14:16:30;2.30;;;2.10;;
15358;SDS011;7779;49.596;11.070;2022-07-30T14:18:56;2.63;;;2.20;;
15358;SDS011;7779;49.596;11.070;2022-07-30T14:21:22;2.67;;;2.20;;
15358;SDS011;7779;49.596;11.070;2022-07-30T14:23:48;2.47;;;2.10;;
15358;SDS011;7779;49.596;11.070;2022-07-30T14:26:15;2.43;;;2.10;;
15358;SDS011;7779;49.596;11.070;2022-07-30T14:28:40;3.13;;;2.53;;
15358;SDS011;7779;49.596;11.070;2022-07-30T14:31:06;3.53;;;2.00;;
15358;SDS011;7779;49.596;11.070;2022-07-30T14:33:32;1.97;;;1.73;;
15358;SDS011;7779;49.596;11.070;2022-07-30T14:35:58;3.07;;;2.20;;
15358;SDS011;7779;49.596;11.070;2022-07-30T14:38:24;1.97;;;1.80;;
15358;SDS011;7779;49.596;11.070;2022-07-30T14:40:50;2.10;;;1.93;;
15358;SDS011;7779;49.596;11.070;2022-07-30T14:43:15;3.97;;;2.10;;
15358;SDS011;7779;49.596;11.070;2022-07-30T14:45:43;2.13;;;1.90;;
15358;SDS011;7779;49.596;11.070;2022-07-30T14:48:09;2.00;;;1.90;;
15358;SDS011;7779;49.596;11.070;2022-07-30T14:50:35;2.47;;;2.27;;
15358;SDS011;7779;49.596;11.070;2022-07-30T14:53:01;5.07;;;2.70;;
15358;SDS011;7779;49.596;11.070;2022-07-30T14:55:27;2.30;;;2.07;;
15358;SDS011;7779;49.596;11.070;2022-07-30T14:57:53;3.17;;;1.90;;
15358;SDS011;7779;49.596;11.070;2022-07-30T15:00:19;2.20;;;2.00;;
15358;SDS011;7779;49.596;11.070;2022-07-30T15:02:45;3.00;;;2.20;;
15358;SDS011;7779;49.596;11.070;2022-07-30T15:05:10;1.93;;;1.77;;
15358;SDS011;7779;49.596;11.070;2022-07-30T15:07:36;2.43;;;2.23;;
15358;SDS011;7779;49.596;11.070;2022-07-30T15:10:03;3.93;;;1.90;;
15358;SDS011;7779;49.596;11.070;2022-07-30T15:12:31;3.17;;;1.93;;
15358;SDS011;7779;49.596;11.070;2022-07-30T15:14:57;2.30;;;2.03;;
15358;SDS011;7779;49.596;11.070;2022-07-30T15:17:23;2.27;;;2.13;;
15358;SDS011;7779;49.596;11.070;2022-07-30T15:19:49;3.60;;;2.40;;
15358;SDS011;7779;49.596;11.070;2022-07-30T15:22:14;5.20;;;2.40;;
15358;SDS011;7779;49.596;11.070;2022-07-30T15:24:40;2.40;;;2.20;;
15358;SDS011;7779;49.596;11.070;2022-07-30T15:27:06;4.47;;;2.33;;
15358;SDS011;7779;49.596;11.070;2022-07-30T15:29:32;2.40;;;2.20;;
15358;SDS011;7779;49.596;11.070;2022-07-30T15:31:58;3.30;;;2.40;;
15358;SDS011;7779;49.596;11.070;2022-07-30T15:34:24;2.50;;;2.30;;
15358;SDS011;7779;49.596;11.070;2022-07-30T15:36:52;2.50;;;2.30;;
15358;SDS011;7779;49.596;11.070;2022-07-30T15:39:18;2.30;;;2.10;;
15358;SDS011;7779;49.596;11.070;2022-07-30T15:41:44;2.20;;;2.00;;